Time;durP1;ratioP1;P1;durP2;ratioP2;P2;SDS_P1;SDS_P2;PMS_P1;PMS_P2;Temp;Humidity;BMP_temperature;BMP_pressure;BME280_temperature;BME280_humidity;BME280_pressure;Samples;Min_cycle;Max_cycle;Signal;HPM_P1;HPM_P2
2021/05/31 00:04:39;;;;;;;;;;;13.80;99.90;;;;;;10276730;28;19929;-50
2021/05/31 00:09:41;;;;;;;;;;;13.70;99.90;;;;;;10267332;28;19942;-50
2021/05/31 00:14:43;;;;;;;;;;;13.60;99.90;;;;;;10274421;28;19924;-50
2021/05/31 00:19:43;;;;;;;;;;;13.50;99.90;;;;;;10270756;28;19984;-51
2021/05/31 00:24:44;;;;;;;;;;;13.50;99.90;;;;;;10281398;28;19976;-51
2021/05/31 00:29:45;;;;;;;;;;;13.30;99.90;;;;;;10283269;28;19918;-50
2021/05/31 00:34:45;;;;;;;;;;;13.20;99.90;;;;;;10276318;28;19925;-50
2021/05/31 00:39:46;;;;;;;;;;;13.30;99.90;;;;;;10281008;28;20203;-50
2021/05/31 00:44:47;;;;;;;;;;;13.20;99.90;;;;;;10281285;28;20088;-50
2021/05/31 00:49:47;;;;;;;;;;;13.20;99.90;;;;;;10281647;28;20434;-50
2021/05/31 00:54:48;;;;;;;;;;;13.20;99.90;;;;;;10282268;28;19986;-50
2021/05/31 00:59:49;;;;;;;;;;;13.10;99.90;;;;;;10275304;28;19921;-50
2021/05/31 01:04:49;;;;;;;;;;;13.00;99.90;;;;;;10282150;28;19992;-50
2021/05/31 01:09:59;;;;;;;;;;;13.00;99.90;;;;;;10283864;28;21832;-50
2021/05/31 01:15:03;;;;;;;;;;;13.00;99.90;;;;;;10274746;28;19925;-50
2021/05/31 01:20:16;;;;;;;;;;;12.90;99.90;;;;;;10284483;28;20404;-50
2021/05/31 01:25:24;;;;;;;;;;;12.80;99.90;;;;;;10283083;28;19932;-50
2021/05/31 01:30:24;;;;;;;;;;;12.70;99.90;;;;;;10277982;28;19918;-50
2021/05/31 01:35:30;;;;;;;;;;;12.60;99.90;;;;;;10280614;28;19926;-50
2021/05/31 01:40:33;;;;;;;;;;;12.70;99.90;;;;;;10281855;28;20064;-50
2021/05/31 01:45:34;;;;;;;;;;;12.70;99.90;;;;;;10277217;28;20067;-50
2021/05/31 01:50:35;;;;;;;;;;;12.70;99.90;;;;;;10280144;28;20337;-50
2021/05/31 01:55:37;;;;;;;;;;;12.50;99.90;;;;;;10274459;28;20017;-50
2021/05/31 02:00:38;;;;;;;;;;;12.50;99.90;;;;;;10279815;28;19929;-50
2021/05/31 02:05:39;;;;;;;;;;;12.50;99.90;;;;;;10279736;28;19930;-50
2021/05/31 02:10:40;;;;;;;;;;;12.50;99.90;;;;;;10281129;28;19945;-50
2021/05/31 02:15:40;;;;;;;;;;;12.40;99.90;;;;;;10275557;28;19922;-50
2021/05/31 02:20:43;;;;;;;;;;;12.40;99.90;;;;;;10278616;28;20439;-50
2021/05/31 02:25:44;;;;;;;;;;;12.30;99.90;;;;;;10258032;28;19918;-50
2021/05/31 02:30:45;;;;;;;;;;;12.30;99.90;;;;;;10277147;28;19928;-50
2021/05/31 02:35:45;;;;;;;;;;;12.10;99.90;;;;;;10276414;28;20813;-50
2021/05/31 02:40:46;;;;;;;;;;;12.10;99.90;;;;;;10275363;28;19922;-50
2021/05/31 02:45:47;;;;;;;;;;;12.00;99.90;;;;;;10277265;28;20361;-50
2021/05/31 02:50:47;;;;;;;;;;;12.00;99.90;;;;;;10279891;28;20284;-50
2021/05/31 02:55:48;;;;;;;;;;;11.90;99.90;;;;;;10273012;28;20384;-50
2021/05/31 03:00:48;;;;;;;;;;;11.90;99.90;;;;;;10280696;28;19922;-50
2021/05/31 03:05:49;;;;;;;;;;;11.90;99.90;;;;;;10277062;28;19929;-50
2021/05/31 03:10:49;;;;;;;;;;;11.70;99.90;;;;;;10278231;28;19961;-50
2021/05/31 03:15:51;;;;;;;;;;;11.70;99.90;;;;;;10274693;28;19949;-50
2021/05/31 03:20:52;;;;;;;;;;;11.80;99.90;;;;;;10274618;28;19925;-50
2021/05/31 03:25:52;;;;;;;;;;;11.70;99.90;;;;;;10275604;28;20292;-50
2021/05/31 03:30:53;;;;;;;;;;;11.70;99.90;;;;;;10274532;28;19949;-50
2021/05/31 03:35:53;;;;;;;;;;;11.70;99.90;;;;;;10274277;28;19972;-50
2021/05/31 03:40:54;;;;;;;;;;;11.60;99.90;;;;;;10274031;28;19949;-50
2021/05/31 03:45:55;;;;;;;;;;;11.50;99.90;;;;;;10279711;28;22811;-50
2021/05/31 03:51:08;;;;;;;;;;;11.50;99.90;;;;;;10271460;28;20280;-50
2021/05/31 03:56:09;;;;;;;;;;;11.50;99.90;;;;;;10275128;28;19925;-50
2021/05/31 04:01:10;;;;;;;;;;;11.40;99.90;;;;;;10283711;28;19918;-50
2021/05/31 04:06:21;;;;;;;;;;;11.40;99.90;;;;;;10280001;28;19926;-50
2021/05/31 04:11:37;;;;;;;;;;;11.30;99.90;;;;;;10278792;28;19926;-50
2021/05/31 04:16:39;;;;;;;;;;;11.30;99.90;;;;;;10281100;28;19929;-51
2021/05/31 04:21:42;;;;;;;;;;;11.20;99.90;;;;;;10281814;28;20311;-51
2021/05/31 04:26:43;;;;;;;;;;;11.30;99.90;;;;;;10281216;28;19929;-50
2021/05/31 04:31:44;;;;;;;;;;;11.30;99.90;;;;;;10265802;28;19991;-51
2021/05/31 04:36:44;;;;;;;;;;;11.30;99.90;;;;;;10278051;28;19965;-51
2021/05/31 04:41:45;;;;;;;;;;;11.30;99.90;;;;;;10282530;28;19929;-51
2021/05/31 04:46:45;;;;;;;;;;;11.30;99.90;;;;;;10280791;28;20369;-51
2021/05/31 04:51:46;;;;;;;;;;;11.40;99.90;;;;;;10288723;28;20632;-51
2021/05/31 04:56:47;;;;;;;;;;;11.60;99.90;;;;;;10276244;28;19922;-51
2021/05/31 05:01:47;;;;;;;;;;;11.70;99.90;;;;;;10275562;28;19936;-51
2021/05/31 05:06:48;;;;;;;;;;;11.80;99.90;;;;;;10259534;28;19926;-51
2021/05/31 05:11:48;;;;;;;;;;;11.90;99.90;;;;;;10282990;28;20374;-51
2021/05/31 05:16:49;;;;;;;;;;;12.00;99.90;;;;;;10283218;28;19932;-51
2021/05/31 05:21:49;;;;;;;;;;;12.20;99.90;;;;;;10279669;28;20052;-51
2021/05/31 05:26:50;;;;;;;;;;;12.30;99.90;;;;;;10039181;28;19933;-50
2021/05/31 05:31:51;;;;;;;;;;;12.50;99.90;;;;;;10017081;28;21163;-50
2021/05/31 05:37:08;;;;;;;;;;;12.60;99.90;;;;;;10210893;28;20170;-51
2021/05/31 05:47:42;;;;;;;;;;;12.90;99.90;;;;;;10280139;28;19964;-51
2021/05/31 05:52:43;;;;;;;;;;;13.10;99.90;;;;;;10281056;28;19922;-51
2021/05/31 05:57:44;;;;;;;;;;;13.30;99.90;;;;;;10284176;28;19915;-51
2021/05/31 06:02:45;;;;;;;;;;;13.50;99.90;;;;;;10270228;28;20272;-51
2021/05/31 06:07:45;;;;;;;;;;;13.60;99.90;;;;;;10286647;28;19918;-51
2021/05/31 06:12:46;;;;;;;;;;;13.80;99.90;;;;;;10287851;28;20276;-51
2021/05/31 06:17:47;;;;;;;;;;;13.90;99.90;;;;;;10275016;28;20028;-51
2021/05/31 06:22:48;;;;;;;;;;;14.00;99.90;;;;;;10280560;28;20216;-48
2021/05/31 06:27:49;;;;;;;;;;;14.20;99.90;;;;;;10060663;28;20545;-48
2021/05/31 06:32:49;;;;;;;;;;;14.40;99.90;;;;;;10018939;28;19922;-51
2021/05/31 06:37:50;;;;;;;;;;;14.60;99.90;;;;;;10023065;28;19930;-51
2021/05/31 06:42:54;;;;;;;;;;;14.80;99.90;;;;;;10020576;28;21390;-51
2021/05/31 06:47:55;;;;;;;;;;;14.80;99.90;;;;;;10010927;28;25456;-51
2021/05/31 06:52:57;;;;;;;;;;;15.10;99.90;;;;;;10023599;28;20483;-48
2021/05/31 06:57:58;;;;;;;;;;;15.20;99.90;;;;;;10016061;28;19921;-48
2021/05/31 07:02:58;;;;;;;;;;;15.40;99.90;;;;;;10021412;28;19929;-48
2021/05/31 07:08:00;;;;;;;;;;;15.60;99.90;;;;;;10054174;28;20955;-48
2021/05/31 07:13:02;;;;;;;;;;;15.90;99.90;;;;;;10000106;28;19918;-48
2021/05/31 07:18:02;;;;;;;;;;;15.90;99.90;;;;;;10023751;28;19984;-49
2021/05/31 07:23:04;;;;;;;;;;;16.00;99.90;;;;;;10277053;28;19936;-48
2021/05/31 07:28:05;;;;;;;;;;;16.00;99.90;;;;;;10267075;28;20588;-48
2021/05/31 07:33:09;;;;;;;;;;;16.00;99.90;;;;;;10268287;28;19962;-48
2021/05/31 07:38:10;;;;;;;;;;;16.20;99.90;;;;;;10270546;28;19937;-48
2021/05/31 07:43:11;;;;;;;;;;;16.20;99.90;;;;;;10272104;28;19945;-48
2021/05/31 07:48:11;;;;;;;;;;;16.20;99.90;;;;;;10285948;28;20583;-48
2021/05/31 07:53:19;;;;;;;;;;;16.30;99.90;;;;;;10285419;28;20060;-48
2021/05/31 07:58:20;;;;;;;;;;;16.40;99.90;;;;;;10287982;28;20013;-48
2021/05/31 08:03:20;;;;;;;;;;;16.50;99.90;;;;;;10290915;28;20286;-48
2021/05/31 08:08:21;;;;;;;;;;;16.70;99.90;;;;;;10270153;28;19929;-48
2021/05/31 08:13:22;;;;;;;;;;;16.80;99.90;;;;;;10283996;28;20463;-48
2021/05/31 08:18:23;;;;;;;;;;;17.00;99.90;;;;;;10284271;28;19925;-48
2021/05/31 08:23:24;;;;;;;;;;;17.20;99.90;;;;;;10282418;28;20603;-48
2021/05/31 08:28:25;;;;;;;;;;;17.40;99.90;;;;;;10281337;28;19925;-49
2021/05/31 08:33:26;;;;;;;;;;;17.70;99.90;;;;;;10285774;28;20034;-48
2021/05/31 08:38:26;;;;;;;;;;;17.70;99.90;;;;;;10280238;28;19925;-48
2021/05/31 08:43:27;;;;;;;;;;;18.00;99.90;;;;;;10286393;28;19938;-49
2021/05/31 08:48:28;;;;;;;;;;;18.30;99.90;;;;;;10290072;28;20429;-48
2021/05/31 08:53:29;;;;;;;;;;;18.50;99.90;;;;;;10276827;28;20200;-48
2021/05/31 08:58:29;;;;;;;;;;;18.70;99.90;;;;;;10261782;28;20220;-48
2021/05/31 09:03:31;;;;;;;;;;;19.00;99.90;;;;;;10276024;28;19921;-49
2021/05/31 09:08:31;;;;;;;;;;;19.20;99.90;;;;;;10285860;28;20243;-49
2021/05/31 09:13:37;;;;;;;;;;;19.20;99.90;;;;;;10283596;28;19930;-49
2021/05/31 09:18:39;;;;;;;;;;;19.40;99.90;;;;;;10283478;28;20132;-49
2021/05/31 09:23:40;;;;;;;;;;;19.50;99.90;;;;;;10288522;28;20185;-49
2021/05/31 09:28:51;;;;;;;;;;;19.70;99.90;;;;;;10281007;28;20039;-48
2021/05/31 09:34:03;;;;;;;;;;;20.00;99.90;;;;;;10275521;28;20735;-48
2021/05/31 09:39:05;;;;;;;;;;;20.00;99.90;;;;;;10284882;28;20374;-48
2021/05/31 09:44:07;;;;;;;;;;;20.40;99.90;;;;;;10283415;28;19976;-48
2021/05/31 09:49:18;;;;;;;;;;;20.40;99.90;;;;;;10277804;28;20389;-48
2021/05/31 09:54:25;;;;;;;;;;;20.50;99.90;;;;;;10280215;28;20032;-48
2021/05/31 09:59:30;;;;;;;;;;;20.40;99.90;;;;;;10280715;28;20286;-48
2021/05/31 10:04:45;;;;;;;;;;;20.60;99.90;;;;;;10279955;28;20528;-48
2021/05/31 10:09:46;;;;;;;;;;;20.60;99.90;;;;;;10284324;28;19926;-48
2021/05/31 10:14:49;;;;;;;;;;;20.70;99.90;;;;;;10284904;28;19918;-49
2021/05/31 10:19:49;;;;;;;;;;;20.80;99.90;;;;;;10283505;28;19921;-49
2021/05/31 10:24:50;;;;;;;;;;;20.90;99.90;;;;;;10281692;28;19926;-48
2021/05/31 10:29:51;;;;;;;;;;;20.90;99.90;;;;;;10290252;28;19919;-49
2021/05/31 10:34:55;;;;;;;;;;;21.10;99.90;;;;;;10031749;28;19926;-48
2021/05/31 10:40:10;;;;;;;;;;;21.50;99.90;;;;;;10027633;28;20385;-49
2021/05/31 10:45:18;;;;;;;;;;;21.90;99.90;;;;;;10026224;28;19936;-48
2021/05/31 10:50:18;;;;;;;;;;;22.00;99.90;;;;;;10036203;28;20583;-48
2021/05/31 10:55:19;;;;;;;;;;;21.70;99.90;;;;;;10030910;28;20491;-48
2021/05/31 11:00:21;;;;;;;;;;;21.80;99.90;;;;;;10033761;28;20112;-48
2021/05/31 11:05:29;;;;;;;;;;;21.60;99.90;;;;;;10034404;28;19933;-48
2021/05/31 11:10:30;;;;;;;;;;;21.60;99.90;;;;;;10036594;28;20628;-48
2021/05/31 11:15:34;;;;;;;;;;;21.60;99.90;;;;;;10129009;28;19961;-48
2021/05/31 11:20:38;;;;;;;;;;;21.60;99.90;;;;;;10280492;28;20439;-49
2021/05/31 11:25:39;;;;;;;;;;;21.60;99.90;;;;;;10276097;28;19941;-49
2021/05/31 11:30:39;;;;;;;;;;;21.60;99.90;;;;;;10276632;28;20487;-49
2021/05/31 11:35:43;;;;;;;;;;;21.60;99.90;;;;;;10279555;28;19921;-49
2021/05/31 11:40:44;;;;;;;;;;;22.00;99.90;;;;;;10277372;28;20008;-49
2021/05/31 11:45:46;;;;;;;;;;;22.10;99.90;;;;;;10276491;28;19921;-50
2021/05/31 11:50:48;;;;;;;;;;;22.10;99.90;;;;;;10275928;28;19918;-50
2021/05/31 11:55:48;;;;;;;;;;;22.70;99.90;;;;;;10273401;28;20293;-49
2021/05/31 12:00:49;;;;;;;;;;;22.60;99.90;;;;;;10276858;28;19929;-50
2021/05/31 12:05:49;;;;;;;;;;;22.70;99.90;;;;;;10273573;28;19926;-50
2021/05/31 12:10:50;;;;;;;;;;;22.60;99.90;;;;;;10277525;28;19932;-50
2021/05/31 12:15:51;;;;;;;;;;;22.60;99.90;;;;;;10277198;28;19952;-50
2021/05/31 12:20:56;;;;;;;;;;;22.80;99.90;;;;;;10284910;28;20373;-50
2021/05/31 12:26:01;;;;;;;;;;;23.10;99.90;;;;;;10294051;28;19973;-51
2021/05/31 12:31:02;;;;;;;;;;;23.00;99.90;;;;;;10294293;28;19922;-50
2021/05/31 12:36:04;;;;;;;;;;;23.00;99.90;;;;;;10275663;28;19914;-50
2021/05/31 12:41:04;;;;;;;;;;;22.80;99.90;;;;;;10288482;28;19930;-51
2021/05/31 12:46:14;;;;;;;;;;;22.80;99.90;;;;;;10289874;28;19936;-51
2021/05/31 12:51:15;;;;;;;;;;;23.00;99.90;;;;;;10287040;28;19921;-50
2021/05/31 12:56:16;;;;;;;;;;;22.70;99.90;;;;;;10286286;28;19945;-51
2021/05/31 13:01:16;;;;;;;;;;;22.90;99.90;;;;;;10286174;28;20498;-50
2021/05/31 13:06:17;;;;;;;;;;;23.10;99.90;;;;;;10281734;28;19932;-51
2021/05/31 13:11:18;;;;;;;;;;;23.10;99.90;;;;;;10281051;28;20265;-51
2021/05/31 13:16:30;;;;;;;;;;;23.80;99.90;;;;;;10240155;28;20429;-51
2021/05/31 13:21:38;;;;;;;;;;;23.40;99.90;;;;;;10285845;28;19929;-51
2021/05/31 13:26:39;;;;;;;;;;;23.50;99.90;;;;;;10284251;28;20369;-51
2021/05/31 13:31:39;;;;;;;;;;;23.50;99.90;;;;;;10278685;28;19918;-51
2021/05/31 13:36:40;;;;;;;;;;;23.30;99.90;;;;;;10285619;28;20008;-49
2021/05/31 13:41:45;;;;;;;;;;;23.10;99.90;;;;;;10291912;28;19921;-49
2021/05/31 13:46:46;;;;;;;;;;;23.00;99.90;;;;;;10289986;28;20777;-49
2021/05/31 13:51:50;;;;;;;;;;;23.30;99.90;;;;;;10283043;28;20432;-49
2021/05/31 13:56:51;;;;;;;;;;;23.20;99.90;;;;;;10287544;28;20340;-49
2021/05/31 14:01:53;;;;;;;;;;;22.80;99.90;;;;;;10283352;28;19932;-49
2021/05/31 14:06:54;;;;;;;;;;;22.80;99.90;;;;;;10279218;28;19922;-49
2021/05/31 14:11:55;;;;;;;;;;;23.20;99.90;;;;;;10281298;28;19933;-49
2021/05/31 14:16:55;;;;;;;;;;;23.00;99.90;;;;;;10280882;28;19922;-49
2021/05/31 14:21:56;;;;;;;;;;;22.50;99.90;;;;;;10245406;28;20305;-49
2021/05/31 14:26:58;;;;;;;;;;;22.60;99.90;;;;;;10279825;28;19922;-49
2021/05/31 14:31:58;;;;;;;;;;;22.60;99.90;;;;;;10281455;28;20570;-48
2021/05/31 14:36:59;;;;;;;;;;;22.50;99.90;;;;;;10288486;28;19930;-48
2021/05/31 14:44:20;;;;;;;;;;;22.40;99.90;;;;;;10542118;27;1970211;-49
2021/05/31 14:49:22;;;;;;;;;;;22.30;99.90;;;;;;10611718;27;20011;-49
2021/05/31 14:54:23;;;;;;;;;;;22.50;99.90;;;;;;10613321;27;20305;-49
2021/05/31 14:59:24;;;;;;;;;;;22.40;99.90;;;;;;10612538;27;19927;-49
2021/05/31 15:04:25;;;;;;;;;;;22.30;99.90;;;;;;10614379;27;19938;-49
2021/05/31 15:09:26;;;;;;;;;;;22.30;99.90;;;;;;10611684;27;20015;-49
2021/05/31 15:14:26;;;;;;;;;;;22.20;99.90;;;;;;10611413;27;19923;-49
2021/05/31 15:19:29;;;;;;;;;;;22.10;99.90;;;;;;10607994;27;19926;-49
2021/05/31 15:24:29;;;;;;;;;;;22.10;99.90;;;;;;10616344;27;19923;-49
2021/05/31 15:29:30;;;;;;;;;;;22.10;99.90;;;;;;10607720;27;19920;-50
2021/05/31 15:34:30;;;;;;;;;;;22.10;99.90;;;;;;10594285;27;20331;-50
2021/05/31 15:39:32;;;;;;;;;;;21.90;99.90;;;;;;10569356;27;19968;-50
2021/05/31 15:44:33;;;;;;;;;;;22.10;99.90;;;;;;10563945;27;19924;-49
2021/05/31 15:49:34;;;;;;;;;;;22.20;99.90;;;;;;10569908;27;19915;-49
2021/05/31 15:54:35;;;;;;;;;;;22.30;99.90;;;;;;10532458;27;19928;-50
2021/05/31 15:59:35;;;;;;;;;;;22.20;99.90;;;;;;10530398;27;19916;-49
2021/05/31 16:04:36;;;;;;;;;;;21.80;99.90;;;;;;10494313;28;19968;-49
2021/05/31 16:09:37;;;;;;;;;;;21.70;99.90;;;;;;10530452;27;20381;-50
2021/05/31 16:14:37;;;;;;;;;;;21.60;99.90;;;;;;10521981;28;19916;-50
2021/05/31 16:19:38;;;;;;;;;;;21.90;99.90;;;;;;10527539;27;19931;-50
2021/05/31 16:24:48;;;;;;;;;;;21.80;99.90;;;;;;10525012;27;19946;-49
2021/05/31 16:29:48;;;;;;;;;;;21.60;99.90;;;;;;10532236;27;20296;-50
2021/05/31 16:34:49;;;;;;;;;;;21.60;99.90;;;;;;10532310;27;20062;-49
2021/05/31 16:39:50;;;;;;;;;;;21.70;99.90;;;;;;10519893;27;19931;-50
2021/05/31 16:44:50;;;;;;;;;;;21.60;99.90;;;;;;10486700;28;19984;-50
2021/05/31 16:49:51;;;;;;;;;;;21.40;99.90;;;;;;10521422;27;19920;-50
2021/05/31 16:54:52;;;;;;;;;;;21.20;99.90;;;;;;10522053;28;19920;-49
2021/05/31 16:59:52;;;;;;;;;;;21.10;99.90;;;;;;10523696;28;19928;-50
2021/05/31 17:04:53;;;;;;;;;;;21.10;99.90;;;;;;10528746;27;19953;-50
2021/05/31 17:09:58;;;;;;;;;;;21.10;99.90;;;;;;10534839;28;19931;-50
2021/05/31 17:15:17;;;;;;;;;;;20.90;99.90;;;;;;10524518;28;19963;-50
2021/05/31 17:20:29;;;;;;;;;;;20.90;99.90;;;;;;10521178;28;20290;-49
2021/05/31 17:25:31;;;;;;;;;;;21.10;99.90;;;;;;10529330;28;20286;-50
2021/05/31 17:30:32;;;;;;;;;;;21.10;99.90;;;;;;10522982;28;20673;-50
2021/05/31 17:35:32;;;;;;;;;;;21.00;99.90;;;;;;10527027;28;19981;-49
2021/05/31 17:40:33;;;;;;;;;;;21.10;97.10;;;;;;10523633;28;19967;-50
2021/05/31 17:45:33;;;;;;;;;;;21.50;94.00;;;;;;10528847;28;19924;-50
2021/05/31 17:50:36;;;;;;;;;;;21.70;92.30;;;;;;10523197;28;19981;-49
2021/05/31 17:55:37;;;;;;;;;;;21.90;88.70;;;;;;10525861;27;20344;-50
2021/05/31 18:00:38;;;;;;;;;;;22.00;90.30;;;;;;10531428;27;19965;-50
2021/05/31 18:05:39;;;;;;;;;;;22.00;91.60;;;;;;10525481;28;20427;-50
2021/05/31 18:10:40;;;;;;;;;;;22.00;91.30;;;;;;10489497;28;20419;-50
2021/05/31 18:15:41;;;;;;;;;;;22.10;91.80;;;;;;10525707;28;20000;-50
2021/05/31 18:30:26;;;;;;;;;;;22.00;91.70;;;;;;20685553;27;156553;-49
2021/05/31 18:40:27;;;;;;;;;;;21.80;95.60;;;;;;20694103;28;19936;-49
2021/05/31 18:50:29;;;;;;;;;;;21.70;96.90;;;;;;20683094;28;19917;-49
2021/05/31 19:00:33;;;;;;;;;;;21.50;99.20;;;;;;20667444;28;19928;-49
2021/05/31 19:10:33;;;;;;;;;;;21.20;99.50;;;;;;20691946;28;20019;-49
2021/05/31 19:20:34;;;;;;;;;;;20.90;99.90;;;;;;20662607;28;19960;-49
2021/05/31 19:30:36;;;;;;;;;;;20.20;99.90;;;;;;20561557;23;20081;-49
2021/05/31 19:40:41;;;;;;;;;;;19.70;99.90;;;;;;20490838;28;19974;-49
2021/05/31 19:50:42;;;;;;;;;;;19.30;99.90;;;;;;20394550;28;20213;-50
2021/05/31 20:00:44;;;;;;;;;;;19.10;99.90;;;;;;20395142;28;19919;-49
2021/05/31 20:10:45;;;;;;;;;;;19.00;99.90;;;;;;20392551;28;19922;-49
2021/05/31 20:20:46;;;;;;;;;;;18.70;99.90;;;;;;20386188;28;19949;-49
2021/05/31 20:30:49;;;;;;;;;;;18.60;99.90;;;;;;20392464;28;19942;-49
2021/05/31 20:40:50;;;;;;;;;;;18.40;99.90;;;;;;20388432;28;19935;-49
2021/05/31 20:50:51;;;;;;;;;;;18.10;99.90;;;;;;20384328;28;19985;-49
2021/05/31 21:00:52;;;;;;;;;;;18.00;99.90;;;;;;20390654;28;19923;-49
2021/05/31 21:10:58;;;;;;;;;;;17.80;99.90;;;;;;20389268;28;19927;-49
2021/05/31 21:21:00;;;;;;;;;;;17.60;99.90;;;;;;20390465;28;19927;-49
2021/05/31 21:31:01;;;;;;;;;;;17.40;99.90;;;;;;20393031;28;19938;-49
2021/05/31 21:41:02;;;;;;;;;;;17.20;99.90;;;;;;20392411;29;20025;-49
2021/05/31 21:51:03;;;;;;;;;;;16.90;99.90;;;;;;20394391;28;19927;-49
2021/05/31 22:01:05;;;;;;;;;;;16.70;99.90;;;;;;20390958;28;19922;-49
2021/05/31 22:11:06;;;;;;;;;;;16.50;99.90;;;;;;20397039;29;19923;-49
2021/05/31 22:21:07;;;;;;;;;;;16.20;99.90;;;;;;20400627;28;19927;-49
2021/05/31 22:31:12;;;;;;;;;;;16.10;99.90;;;;;;20391288;28;19926;-49
2021/05/31 22:41:21;;;;;;;;;;;16.00;99.90;;;;;;20392266;29;19923;-49
2021/05/31 23:02:05;;;;;;;;;;;15.70;99.90;;;;;;20392972;29;20062;-49
2021/05/31 23:12:27;;;;;;;;;;;15.70;99.90;;;;;;20403372;28;19927;-49
2021/05/31 23:22:29;;;;;;;;;;;15.50;99.90;;;;;;20409490;28;20342;-49
2021/05/31 23:32:30;;;;;;;;;;;15.30;99.90;;;;;;20401786;28;20278;-49
2021/05/31 23:42:32;;;;;;;;;;;15.10;99.90;;;;;;20406109;29;19930;-49
2021/05/31 23:52:33;;;;;;;;;;;15.00;99.90;;;;;;20407860;28;19919;-48
